sensor_id;sensor_type;location;lat;lon;timestamp;P1;durP1;ratioP1;P2;durP2;ratioP2
7887;SDS011;3989;48.810;9.208;2023-10-09T00:01:04;8.97;;;6.60;;
7887;SDS011;3989;48.810;9.208;2023-10-09T00:03:38;8.47;;;5.40;;
7887;SDS011;3989;48.810;9.208;2023-10-09T00:06:06;9.73;;;5.33;;
7887;SDS011;3989;48.810;9.208;2023-10-09T00:08:35;7.97;;;5.63;;
7887;SDS011;3989;48.810;9.208;2023-10-09T00:11:04;10.70;;;5.43;;
7887;SDS011;3989;48.810;9.208;2023-10-09T00:13:41;13.60;;;6.00;;
7887;SDS011;3989;48.810;9.208;2023-10-09T00:16:15;9.20;;;6.00;;
7887;SDS011;3989;48.810;9.208;2023-10-09T00:18:47;11.90;;;6.70;;
7887;SDS011;3989;48.810;9.208;2023-10-09T00:21:14;9.40;;;6.33;;
7887;SDS011;3989;48.810;9.208;2023-10-09T00:23:45;9.23;;;5.77;;
7887;SDS011;3989;48.810;9.208;2023-10-09T00:26:17;8.87;;;6.27;;
7887;SDS011;3989;48.810;9.208;2023-10-09T00:28:45;7.60;;;5.60;;
7887;SDS011;3989;48.810;9.208;2023-10-09T00:31:12;12.17;;;6.63;;
7887;SDS011;3989;48.810;9.208;2023-10-09T00:33:42;13.40;;;6.00;;
7887;SDS011;3989;48.810;9.208;2023-10-09T00:36:09;10.33;;;5.93;;
7887;SDS011;3989;48.810;9.208;2023-10-09T00:38:37;14.10;;;6.40;;
7887;SDS011;3989;48.810;9.208;2023-10-09T00:41:09;11.77;;;5.93;;
7887;SDS011;3989;48.810;9.208;2023-10-09T00:43:37;11.50;;;5.97;;
7887;SDS011;3989;48.810;9.208;2023-10-09T00:46:08;11.23;;;6.03;;
7887;SDS011;3989;48.810;9.208;2023-10-09T00:48:51;9.47;;;5.93;;
7887;SDS011;3989;48.810;9.208;2023-10-09T00:51:20;11.13;;;6.53;;
7887;SDS011;3989;48.810;9.208;2023-10-09T00:53:50;7.43;;;5.73;;
7887;SDS011;3989;48.810;9.208;2023-10-09T00:56:19;10.67;;;5.57;;
7887;SDS011;3989;48.810;9.208;2023-10-09T00:58:55;9.17;;;5.93;;
7887;SDS011;3989;48.810;9.208;2023-10-09T01:01:25;10.73;;;5.87;;
7887;SDS011;3989;48.810;9.208;2023-10-09T01:03:55;8.07;;;5.57;;
7887;SDS011;3989;48.810;9.208;2023-10-09T01:06:24;9.13;;;5.90;;
7887;SDS011;3989;48.810;9.208;2023-10-09T01:08:53;14.17;;;6.10;;
7887;SDS011;3989;48.810;9.208;2023-10-09T01:11:34;7.47;;;5.80;;
7887;SDS011;3989;48.810;9.208;2023-10-09T01:17:20;9.00;;;5.73;;
7887;SDS011;3989;48.810;9.208;2023-10-09T01:20:02;10.70;;;6.10;;
7887;SDS011;3989;48.810;9.208;2023-10-09T01:22:30;10.10;;;5.53;;
7887;SDS011;3989;48.810;9.208;2023-10-09T01:24:58;10.33;;;6.10;;
7887;SDS011;3989;48.810;9.208;2023-10-09T01:27:24;10.87;;;5.60;;
7887;SDS011;3989;48.810;9.208;2023-10-09T01:29:57;9.77;;;5.07;;
7887;SDS011;3989;48.810;9.208;2023-10-09T01:32:24;12.60;;;5.30;;
7887;SDS011;3989;48.810;9.208;2023-10-09T01:34:52;11.23;;;5.70;;
7887;SDS011;3989;48.810;9.208;2023-10-09T01:37:19;10.30;;;4.97;;
7887;SDS011;3989;48.810;9.208;2023-10-09T01:39:48;11.03;;;5.70;;
7887;SDS011;3989;48.810;9.208;2023-10-09T01:42:17;12.77;;;5.37;;
7887;SDS011;3989;48.810;9.208;2023-10-09T01:44:57;9.40;;;5.43;;
7887;SDS011;3989;48.810;9.208;2023-10-09T01:47:34;11.10;;;5.30;;
7887;SDS011;3989;48.810;9.208;2023-10-09T01:50:03;8.43;;;5.60;;
7887;SDS011;3989;48.810;9.208;2023-10-09T01:52:37;11.70;;;5.10;;
7887;SDS011;3989;48.810;9.208;2023-10-09T01:55:04;12.77;;;5.00;;
7887;SDS011;3989;48.810;9.208;2023-10-09T01:57:53;8.87;;;5.07;;
7887;SDS011;3989;48.810;9.208;2023-10-09T02:00:19;9.63;;;5.20;;
7887;SDS011;3989;48.810;9.208;2023-10-09T02:02:49;9.00;;;5.20;;
7887;SDS011;3989;48.810;9.208;2023-10-09T02:15:24;10.50;;;4.90;;
7887;SDS011;3989;48.810;9.208;2023-10-09T02:18:19;10.00;;;5.00;;
7887;SDS011;3989;48.810;9.208;2023-10-09T02:21:05;13.07;;;5.40;;
7887;SDS011;3989;48.810;9.208;2023-10-09T02:23:39;11.93;;;5.33;;
7887;SDS011;3989;48.810;9.208;2023-10-09T02:26:12;11.03;;;5.60;;
7887;SDS011;3989;48.810;9.208;2023-10-09T02:28:44;9.63;;;5.33;;
7887;SDS011;3989;48.810;9.208;2023-10-09T02:31:17;8.27;;;4.97;;
7887;SDS011;3989;48.810;9.208;2023-10-09T02:33:48;11.80;;;5.20;;
7887;SDS011;3989;48.810;9.208;2023-10-09T02:36:18;8.20;;;5.03;;
7887;SDS011;3989;48.810;9.208;2023-10-09T02:38:44;8.37;;;5.03;;
7887;SDS011;3989;48.810;9.208;2023-10-09T02:41:13;11.03;;;5.40;;
7887;SDS011;3989;48.810;9.208;2023-10-09T02:43:45;9.40;;;5.50;;
7887;SDS011;3989;48.810;9.208;2023-10-09T02:46:13;10.23;;;5.53;;
7887;SDS011;3989;48.810;9.208;2023-10-09T02:48:42;11.27;;;5.37;;
7887;SDS011;3989;48.810;9.208;2023-10-09T02:51:11;10.37;;;5.20;;
7887;SDS011;3989;48.810;9.208;2023-10-09T02:53:47;10.87;;;5.43;;
7887;SDS011;3989;48.810;9.208;2023-10-09T02:56:15;11.97;;;5.10;;
7887;SDS011;3989;48.810;9.208;2023-10-09T02:58:43;10.93;;;4.93;;
7887;SDS011;3989;48.810;9.208;2023-10-09T03:01:10;17.30;;;6.33;;
7887;SDS011;3989;48.810;9.208;2023-10-09T03:03:38;8.87;;;5.17;;
7887;SDS011;3989;48.810;9.208;2023-10-09T03:06:06;11.53;;;5.30;;
7887;SDS011;3989;48.810;9.208;2023-10-09T03:08:37;12.13;;;4.87;;
7887;SDS011;3989;48.810;9.208;2023-10-09T03:11:06;12.03;;;4.90;;
7887;SDS011;3989;48.810;9.208;2023-10-09T03:13:38;11.77;;;5.20;;
7887;SDS011;3989;48.810;9.208;2023-10-09T03:16:09;11.03;;;5.77;;
7887;SDS011;3989;48.810;9.208;2023-10-09T03:18:39;8.77;;;5.33;;
7887;SDS011;3989;48.810;9.208;2023-10-09T03:21:07;11.27;;;5.43;;
7887;SDS011;3989;48.810;9.208;2023-10-09T03:23:33;7.90;;;4.90;;
7887;SDS011;3989;48.810;9.208;2023-10-09T03:26:01;9.50;;;4.83;;
7887;SDS011;3989;48.810;9.208;2023-10-09T03:28:28;16.63;;;5.67;;
7887;SDS011;3989;48.810;9.208;2023-10-09T03:30:55;11.57;;;5.33;;
7887;SDS011;3989;48.810;9.208;2023-10-09T03:33:24;11.50;;;6.03;;
7887;SDS011;3989;48.810;9.208;2023-10-09T03:35:51;11.20;;;5.43;;
7887;SDS011;3989;48.810;9.208;2023-10-09T03:38:18;8.80;;;4.87;;
7887;SDS011;3989;48.810;9.208;2023-10-09T03:40:45;11.87;;;5.60;;
7887;SDS011;3989;48.810;9.208;2023-10-09T03:43:14;12.43;;;5.27;;
7887;SDS011;3989;48.810;9.208;2023-10-09T03:45:41;12.37;;;4.80;;
7887;SDS011;3989;48.810;9.208;2023-10-09T03:48:17;10.10;;;4.80;;
7887;SDS011;3989;48.810;9.208;2023-10-09T03:50:50;9.17;;;5.37;;
7887;SDS011;3989;48.810;9.208;2023-10-09T03:53:33;9.13;;;5.10;;
7887;SDS011;3989;48.810;9.208;2023-10-09T03:56:01;11.67;;;5.97;;
7887;SDS011;3989;48.810;9.208;2023-10-09T03:58:31;11.60;;;5.60;;
7887;SDS011;3989;48.810;9.208;2023-10-09T04:00:59;12.23;;;5.67;;
7887;SDS011;3989;48.810;9.208;2023-10-09T04:03:27;13.57;;;5.03;;
7887;SDS011;3989;48.810;9.208;2023-10-09T04:05:54;12.13;;;5.40;;
7887;SDS011;3989;48.810;9.208;2023-10-09T04:08:21;9.30;;;4.40;;
7887;SDS011;3989;48.810;9.208;2023-10-09T04:10:54;11.07;;;6.17;;
7887;SDS011;3989;48.810;9.208;2023-10-09T04:13:26;13.30;;;5.53;;
7887;SDS011;3989;48.810;9.208;2023-10-09T04:15:59;10.03;;;5.50;;
7887;SDS011;3989;48.810;9.208;2023-10-09T04:18:34;14.40;;;6.27;;
7887;SDS011;3989;48.810;9.208;2023-10-09T04:21:03;12.30;;;5.17;;
7887;SDS011;3989;48.810;9.208;2023-10-09T04:23:43;12.90;;;5.77;;
7887;SDS011;3989;48.810;9.208;2023-10-09T04:26:28;11.80;;;5.23;;
7887;SDS011;3989;48.810;9.208;2023-10-09T04:28:54;12.63;;;4.77;;
7887;SDS011;3989;48.810;9.208;2023-10-09T04:31:22;15.77;;;6.10;;
7887;SDS011;3989;48.810;9.208;2023-10-09T04:33:57;16.37;;;5.37;;
7887;SDS011;3989;48.810;9.208;2023-10-09T04:36:47;13.37;;;5.47;;
7887;SDS011;3989;48.810;9.208;2023-10-09T04:39:16;9.97;;;5.10;;
7887;SDS011;3989;48.810;9.208;2023-10-09T04:42:00;13.90;;;5.97;;
7887;SDS011;3989;48.810;9.208;2023-10-09T04:44:45;11.23;;;5.53;;
7887;SDS011;3989;48.810;9.208;2023-10-09T04:47:32;11.33;;;5.17;;
7887;SDS011;3989;48.810;9.208;2023-10-09T04:50:03;15.97;;;5.67;;
7887;SDS011;3989;48.810;9.208;2023-10-09T04:52:36;11.83;;;6.07;;
7887;SDS011;3989;48.810;9.208;2023-10-09T04:55:17;16.90;;;5.50;;
7887;SDS011;3989;48.810;9.208;2023-10-09T04:57:45;12.37;;;5.17;;
7887;SDS011;3989;48.810;9.208;2023-10-09T05:00:26;12.53;;;6.67;;
7887;SDS011;3989;48.810;9.208;2023-10-09T05:03:13;15.63;;;7.10;;
7887;SDS011;3989;48.810;9.208;2023-10-09T05:05:50;11.90;;;5.50;;
7887;SDS011;3989;48.810;9.208;2023-10-09T05:08:24;12.37;;;5.20;;
7887;SDS011;3989;48.810;9.208;2023-10-09T05:10:55;15.10;;;5.63;;
7887;SDS011;3989;48.810;9.208;2023-10-09T05:13:31;10.90;;;5.40;;
7887;SDS011;3989;48.810;9.208;2023-10-09T05:16:09;10.60;;;4.90;;
7887;SDS011;3989;48.810;9.208;2023-10-09T05:18:42;12.93;;;5.37;;
7887;SDS011;3989;48.810;9.208;2023-10-09T05:21:10;13.17;;;4.60;;
7887;SDS011;3989;48.810;9.208;2023-10-09T05:23:50;9.73;;;4.67;;
7887;SDS011;3989;48.810;9.208;2023-10-09T05:26:41;11.17;;;5.27;;
7887;SDS011;3989;48.810;9.208;2023-10-09T05:29:16;9.40;;;5.40;;
7887;SDS011;3989;48.810;9.208;2023-10-09T05:32:00;8.23;;;4.90;;
7887;SDS011;3989;48.810;9.208;2023-10-09T05:34:33;9.60;;;6.17;;
7887;SDS011;3989;48.810;9.208;2023-10-09T05:37:22;11.60;;;5.43;;
7887;SDS011;3989;48.810;9.208;2023-10-09T05:39:51;12.40;;;5.73;;
7887;SDS011;3989;48.810;9.208;2023-10-09T05:42:43;14.40;;;5.43;;
7887;SDS011;3989;48.810;9.208;2023-10-09T05:45:11;11.20;;;5.23;;
7887;SDS011;3989;48.810;9.208;2023-10-09T05:48:15;9.60;;;5.20;;
7887;SDS011;3989;48.810;9.208;2023-10-09T05:51:15;12.57;;;5.20;;
7887;SDS011;3989;48.810;9.208;2023-10-09T05:53:55;11.47;;;5.63;;
7887;SDS011;3989;48.810;9.208;2023-10-09T05:56:36;16.93;;;5.33;;
7887;SDS011;3989;48.810;9.208;2023-10-09T05:59:21;17.57;;;5.17;;
7887;SDS011;3989;48.810;9.208;2023-10-09T06:02:05;14.50;;;5.50;;
7887;SDS011;3989;48.810;9.208;2023-10-09T06:04:58;12.53;;;5.93;;
7887;SDS011;3989;48.810;9.208;2023-10-09T06:07:41;14.23;;;5.23;;
7887;SDS011;3989;48.810;9.208;2023-10-09T06:10:27;14.93;;;5.50;;
7887;SDS011;3989;48.810;9.208;2023-10-09T06:13:04;9.13;;;5.10;;
7887;SDS011;3989;48.810;9.208;2023-10-09T06:15:35;11.90;;;5.00;;
7887;SDS011;3989;48.810;9.208;2023-10-09T06:18:34;11.87;;;4.53;;
7887;SDS011;3989;48.810;9.208;2023-10-09T06:21:06;16.97;;;5.83;;
7887;SDS011;3989;48.810;9.208;2023-10-09T06:23:35;15.97;;;5.47;;
7887;SDS011;3989;48.810;9.208;2023-10-09T06:26:29;23.53;;;5.63;;
7887;SDS011;3989;48.810;9.208;2023-10-09T06:28:58;12.13;;;5.20;;
7887;SDS011;3989;48.810;9.208;2023-10-09T06:31:38;16.47;;;5.23;;
7887;SDS011;3989;48.810;9.208;2023-10-09T06:34:26;12.40;;;5.20;;
7887;SDS011;3989;48.810;9.208;2023-10-09T06:36:57;13.37;;;5.73;;
7887;SDS011;3989;48.810;9.208;2023-10-09T06:39:30;14.87;;;4.93;;
7887;SDS011;3989;48.810;9.208;2023-10-09T06:42:16;10.07;;;4.87;;
7887;SDS011;3989;48.810;9.208;2023-10-09T06:44:59;13.63;;;5.03;;
7887;SDS011;3989;48.810;9.208;2023-10-09T06:47:40;14.37;;;5.03;;
7887;SDS011;3989;48.810;9.208;2023-10-09T06:50:06;16.97;;;5.70;;
7887;SDS011;3989;48.810;9.208;2023-10-09T06:52:50;15.10;;;5.47;;
7887;SDS011;3989;48.810;9.208;2023-10-09T06:55:22;12.07;;;4.90;;
7887;SDS011;3989;48.810;9.208;2023-10-09T06:58:00;14.37;;;4.90;;
7887;SDS011;3989;48.810;9.208;2023-10-09T07:00:26;10.97;;;4.57;;
7887;SDS011;3989;48.810;9.208;2023-10-09T07:03:10;13.00;;;5.10;;
7887;SDS011;3989;48.810;9.208;2023-10-09T07:05:37;17.37;;;4.37;;
7887;SDS011;3989;48.810;9.208;2023-10-09T07:08:23;14.60;;;5.10;;
7887;SDS011;3989;48.810;9.208;2023-10-09T07:11:02;11.77;;;5.77;;
7887;SDS011;3989;48.810;9.208;2023-10-09T07:13:48;13.47;;;5.30;;
7887;SDS011;3989;48.810;9.208;2023-10-09T07:16:21;12.77;;;4.77;;
7887;SDS011;3989;48.810;9.208;2023-10-09T07:18:53;21.40;;;5.70;;
7887;SDS011;3989;48.810;9.208;2023-10-09T07:21:20;14.43;;;4.80;;
7887;SDS011;3989;48.810;9.208;2023-10-09T07:23:54;16.33;;;5.67;;
7887;SDS011;3989;48.810;9.208;2023-10-09T07:26:39;13.17;;;4.80;;
7887;SDS011;3989;48.810;9.208;2023-10-09T07:29:13;17.37;;;5.33;;
7887;SDS011;3989;48.810;9.208;2023-10-09T07:31:47;15.47;;;5.43;;
7887;SDS011;3989;48.810;9.208;2023-10-09T07:34:22;17.33;;;5.27;;
7887;SDS011;3989;48.810;9.208;2023-10-09T07:37:17;11.40;;;4.93;;
7887;SDS011;3989;48.810;9.208;2023-10-09T07:39:47;14.07;;;5.27;;
7887;SDS011;3989;48.810;9.208;2023-10-09T07:42:22;11.47;;;4.30;;
7887;SDS011;3989;48.810;9.208;2023-10-09T07:45:00;15.23;;;5.40;;
7887;SDS011;3989;48.810;9.208;2023-10-09T07:47:37;15.17;;;5.40;;
7887;SDS011;3989;48.810;9.208;2023-10-09T07:50:26;13.57;;;4.83;;
7887;SDS011;3989;48.810;9.208;2023-10-09T07:53:03;14.37;;;5.80;;
7887;SDS011;3989;48.810;9.208;2023-10-09T07:55:43;17.70;;;4.97;;
7887;SDS011;3989;48.810;9.208;2023-10-09T07:58:19;17.57;;;5.70;;
7887;SDS011;3989;48.810;9.208;2023-10-09T08:00:51;18.40;;;5.60;;
7887;SDS011;3989;48.810;9.208;2023-10-09T08:03:41;9.90;;;4.50;;
7887;SDS011;3989;48.810;9.208;2023-10-09T08:06:13;16.87;;;4.97;;
7887;SDS011;3989;48.810;9.208;2023-10-09T08:08:57;11.20;;;4.70;;
7887;SDS011;3989;48.810;9.208;2023-10-09T08:11:42;22.07;;;5.03;;
7887;SDS011;3989;48.810;9.208;2023-10-09T08:14:24;17.10;;;5.73;;
7887;SDS011;3989;48.810;9.208;2023-10-09T08:17:06;17.20;;;5.10;;
7887;SDS011;3989;48.810;9.208;2023-10-09T08:19:41;11.53;;;4.93;;
7887;SDS011;3989;48.810;9.208;2023-10-09T08:22:22;11.43;;;4.53;;
7887;SDS011;3989;48.810;9.208;2023-10-09T08:25:18;16.10;;;5.50;;
7887;SDS011;3989;48.810;9.208;2023-10-09T08:27:57;11.32;;;5.10;;
7887;SDS011;3989;48.810;9.208;2023-10-09T08:31:07;11.40;;;5.53;;
7887;SDS011;3989;48.810;9.208;2023-10-09T08:33:45;15.98;;;5.40;;
7887;SDS011;3989;48.810;9.208;2023-10-09T08:36:32;15.30;;;5.28;;
7887;SDS011;3989;48.810;9.208;2023-10-09T08:39:03;17.92;;;5.72;;
7887;SDS011;3989;48.810;9.208;2023-10-09T08:41:45;12.10;;;5.72;;
7887;SDS011;3989;48.810;9.208;2023-10-09T08:44:11;13.27;;;5.80;;
7887;SDS011;3989;48.810;9.208;2023-10-09T08:46:40;21.23;;;5.93;;
7887;SDS011;3989;48.810;9.208;2023-10-09T08:49:10;16.35;;;5.88;;
7887;SDS011;3989;48.810;9.208;2023-10-09T08:51:37;15.27;;;6.05;;
7887;SDS011;3989;48.810;9.208;2023-10-09T08:54:04;17.60;;;6.50;;
7887;SDS011;3989;48.810;9.208;2023-10-09T08:56:45;21.20;;;5.93;;
7887;SDS011;3989;48.810;9.208;2023-10-09T08:59:15;15.77;;;7.03;;
7887;SDS011;3989;48.810;9.208;2023-10-09T09:01:44;19.75;;;6.03;;
7887;SDS011;3989;48.810;9.208;2023-10-09T09:07:04;13.13;;;6.22;;
7887;SDS011;3989;48.810;9.208;2023-10-09T09:09:32;18.70;;;6.63;;
7887;SDS011;3989;48.810;9.208;2023-10-09T09:11:59;17.08;;;5.85;;
7887;SDS011;3989;48.810;9.208;2023-10-09T09:14:35;17.95;;;7.30;;
7887;SDS011;3989;48.810;9.208;2023-10-09T09:17:03;17.48;;;7.18;;
7887;SDS011;3989;48.810;9.208;2023-10-09T09:19:31;17.60;;;6.97;;
7887;SDS011;3989;48.810;9.208;2023-10-09T09:22:04;25.25;;;6.90;;
7887;SDS011;3989;48.810;9.208;2023-10-09T09:24:38;20.85;;;6.07;;
7887;SDS011;3989;48.810;9.208;2023-10-09T09:27:10;16.50;;;6.55;;
7887;SDS011;3989;48.810;9.208;2023-10-09T09:29:43;20.25;;;6.43;;
7887;SDS011;3989;48.810;9.208;2023-10-09T09:32:18;18.45;;;6.90;;
7887;SDS011;3989;48.810;9.208;2023-10-09T09:34:55;13.57;;;6.00;;
7887;SDS011;3989;48.810;9.208;2023-10-09T09:37:28;20.98;;;6.85;;
7887;SDS011;3989;48.810;9.208;2023-10-09T09:39:59;20.63;;;5.75;;
7887;SDS011;3989;48.810;9.208;2023-10-09T09:42:40;16.40;;;5.80;;
7887;SDS011;3989;48.810;9.208;2023-10-09T09:45:10;15.70;;;6.38;;
7887;SDS011;3989;48.810;9.208;2023-10-09T09:47:37;20.88;;;7.28;;
7887;SDS011;3989;48.810;9.208;2023-10-09T09:50:04;18.75;;;7.53;;
7887;SDS011;3989;48.810;9.208;2023-10-09T09:52:40;19.25;;;6.03;;
7887;SDS011;3989;48.810;9.208;2023-10-09T09:55:07;26.33;;;7.15;;
7887;SDS011;3989;48.810;9.208;2023-10-09T09:57:41;18.02;;;6.72;;
7887;SDS011;3989;48.810;9.208;2023-10-09T10:00:16;17.65;;;5.70;;
7887;SDS011;3989;48.810;9.208;2023-10-09T10:02:54;20.75;;;6.03;;
7887;SDS011;3989;48.810;9.208;2023-10-09T10:05:25;12.85;;;5.72;;
7887;SDS011;3989;48.810;9.208;2023-10-09T10:07:57;16.95;;;6.43;;
7887;SDS011;3989;48.810;9.208;2023-10-09T10:10:34;21.33;;;6.25;;
7887;SDS011;3989;48.810;9.208;2023-10-09T10:13:17;21.67;;;6.07;;
7887;SDS011;3989;48.810;9.208;2023-10-09T10:16:04;21.00;;;6.00;;
7887;SDS011;3989;48.810;9.208;2023-10-09T10:18:52;15.63;;;6.10;;
7887;SDS011;3989;48.810;9.208;2023-10-09T10:21:25;13.63;;;5.40;;
7887;SDS011;3989;48.810;9.208;2023-10-09T10:27:19;23.85;;;6.20;;
7887;SDS011;3989;48.810;9.208;2023-10-09T10:32:59;20.17;;;6.38;;
7887;SDS011;3989;48.810;9.208;2023-10-09T10:35:34;21.70;;;7.70;;
7887;SDS011;3989;48.810;9.208;2023-10-09T10:38:22;24.88;;;7.57;;
7887;SDS011;3989;48.810;9.208;2023-10-09T10:40:50;18.63;;;7.65;;
7887;SDS011;3989;48.810;9.208;2023-10-09T10:43:24;19.67;;;7.65;;
7887;SDS011;3989;48.810;9.208;2023-10-09T10:46:12;21.35;;;7.88;;
7887;SDS011;3989;48.810;9.208;2023-10-09T10:48:49;20.35;;;7.65;;
7887;SDS011;3989;48.810;9.208;2023-10-09T10:51:24;22.63;;;8.43;;
7887;SDS011;3989;48.810;9.208;2023-10-09T10:54:00;18.88;;;8.45;;
7887;SDS011;3989;48.810;9.208;2023-10-09T10:56:49;26.73;;;9.23;;
7887;SDS011;3989;48.810;9.208;2023-10-09T10:59:16;24.23;;;8.48;;
7887;SDS011;3989;48.810;9.208;2023-10-09T11:01:50;22.02;;;8.27;;
7887;SDS011;3989;48.810;9.208;2023-10-09T11:04:18;20.27;;;8.13;;
7887;SDS011;3989;48.810;9.208;2023-10-09T11:07:04;25.35;;;9.18;;
7887;SDS011;3989;48.810;9.208;2023-10-09T11:09:42;22.02;;;8.75;;
7887;SDS011;3989;48.810;9.208;2023-10-09T11:12:23;28.80;;;9.50;;
7887;SDS011;3989;48.810;9.208;2023-10-09T11:15:04;27.45;;;8.02;;
7887;SDS011;3989;48.810;9.208;2023-10-09T11:17:34;20.83;;;8.52;;
7887;SDS011;3989;48.810;9.208;2023-10-09T11:20:04;26.65;;;8.43;;
7887;SDS011;3989;48.810;9.208;2023-10-09T11:22:48;20.17;;;7.78;;
7887;SDS011;3989;48.810;9.208;2023-10-09T11:25:40;24.60;;;9.27;;
7887;SDS011;3989;48.810;9.208;2023-10-09T11:28:16;21.17;;;8.27;;
7887;SDS011;3989;48.810;9.208;2023-10-09T11:30:58;24.33;;;7.40;;
7887;SDS011;3989;48.810;9.208;2023-10-09T11:33:41;17.67;;;7.47;;
7887;SDS011;3989;48.810;9.208;2023-10-09T11:36:09;15.00;;;6.13;;
7887;SDS011;3989;48.810;9.208;2023-10-09T11:38:35;23.30;;;7.32;;
7887;SDS011;3989;48.810;9.208;2023-10-09T11:41:11;23.02;;;8.02;;
7887;SDS011;3989;48.810;9.208;2023-10-09T11:43:47;19.45;;;6.63;;
7887;SDS011;3989;48.810;9.208;2023-10-09T11:46:20;14.82;;;6.53;;
7887;SDS011;3989;48.810;9.208;2023-10-09T11:49:04;20.75;;;6.72;;
7887;SDS011;3989;48.810;9.208;2023-10-09T11:51:51;12.45;;;6.00;;
7887;SDS011;3989;48.810;9.208;2023-10-09T11:54:54;22.27;;;8.00;;
7887;SDS011;3989;48.810;9.208;2023-10-09T11:57:26;17.42;;;6.80;;
7887;SDS011;3989;48.810;9.208;2023-10-09T11:59:57;23.02;;;6.55;;
7887;SDS011;3989;48.810;9.208;2023-10-09T12:02:26;21.92;;;6.43;;
7887;SDS011;3989;48.810;9.208;2023-10-09T12:04:53;19.73;;;7.75;;
7887;SDS011;3989;48.810;9.208;2023-10-09T12:07:22;18.00;;;7.03;;
7887;SDS011;3989;48.810;9.208;2023-10-09T12:09:50;21.15;;;6.80;;
7887;SDS011;3989;48.810;9.208;2023-10-09T12:12:21;20.83;;;7.07;;
7887;SDS011;3989;48.810;9.208;2023-10-09T12:14:51;37.08;;;7.38;;
7887;SDS011;3989;48.810;9.208;2023-10-09T12:17:18;21.75;;;7.57;;
7887;SDS011;3989;48.810;9.208;2023-10-09T12:19:51;19.98;;;7.00;;
7887;SDS011;3989;48.810;9.208;2023-10-09T12:22:18;24.45;;;6.72;;
7887;SDS011;3989;48.810;9.208;2023-10-09T12:24:46;25.02;;;7.40;;
7887;SDS011;3989;48.810;9.208;2023-10-09T12:27:13;25.45;;;6.72;;
7887;SDS011;3989;48.810;9.208;2023-10-09T12:29:45;20.25;;;7.15;;
7887;SDS011;3989;48.810;9.208;2023-10-09T12:32:15;30.08;;;7.90;;
7887;SDS011;3989;48.810;9.208;2023-10-09T12:34:46;17.55;;;7.60;;
7887;SDS011;3989;48.810;9.208;2023-10-09T12:37:16;21.02;;;6.05;;
7887;SDS011;3989;48.810;9.208;2023-10-09T12:39:45;20.55;;;6.97;;
7887;SDS011;3989;48.810;9.208;2023-10-09T12:42:12;40.88;;;7.05;;
7887;SDS011;3989;48.810;9.208;2023-10-09T12:44:42;20.60;;;6.82;;
7887;SDS011;3989;48.810;9.208;2023-10-09T12:47:09;18.85;;;5.93;;
7887;SDS011;3989;48.810;9.208;2023-10-09T12:49:36;20.08;;;6.55;;
7887;SDS011;3989;48.810;9.208;2023-10-09T12:52:06;21.15;;;6.38;;
7887;SDS011;3989;48.810;9.208;2023-10-09T12:54:41;16.23;;;6.00;;
7887;SDS011;3989;48.810;9.208;2023-10-09T12:57:11;25.50;;;6.60;;
7887;SDS011;3989;48.810;9.208;2023-10-09T12:59:38;22.05;;;6.63;;
7887;SDS011;3989;48.810;9.208;2023-10-09T13:02:10;20.25;;;6.38;;
7887;SDS011;3989;48.810;9.208;2023-10-09T13:04:38;23.92;;;6.55;;
7887;SDS011;3989;48.810;9.208;2023-10-09T13:07:07;23.17;;;6.60;;
7887;SDS011;3989;48.810;9.208;2023-10-09T13:09:34;15.95;;;6.68;;
7887;SDS011;3989;48.810;9.208;2023-10-09T13:12:09;14.50;;;5.40;;
7887;SDS011;3989;48.810;9.208;2023-10-09T13:14:43;19.45;;;6.03;;
7887;SDS011;3989;48.810;9.208;2023-10-09T13:17:10;18.77;;;6.55;;
7887;SDS011;3989;48.810;9.208;2023-10-09T13:19:38;19.92;;;6.85;;
7887;SDS011;3989;48.810;9.208;2023-10-09T13:22:05;19.35;;;6.18;;
7887;SDS011;3989;48.810;9.208;2023-10-09T13:24:37;14.00;;;6.43;;
7887;SDS011;3989;48.810;9.208;2023-10-09T13:27:05;11.98;;;6.65;;
7887;SDS011;3989;48.810;9.208;2023-10-09T13:29:36;12.20;;;6.10;;
7887;SDS011;3989;48.810;9.208;2023-10-09T13:32:05;15.18;;;6.22;;
7887;SDS011;3989;48.810;9.208;2023-10-09T13:34:38;17.42;;;6.20;;
7887;SDS011;3989;48.810;9.208;2023-10-09T13:37:09;8.63;;;5.50;;
7887;SDS011;3989;48.810;9.208;2023-10-09T13:39:39;10.55;;;6.63;;
7887;SDS011;3989;48.810;9.208;2023-10-09T13:42:17;11.38;;;6.60;;
7887;SDS011;3989;48.810;9.208;2023-10-09T13:44:45;9.73;;;5.95;;
7887;SDS011;3989;48.810;9.208;2023-10-09T13:47:14;9.80;;;6.85;;
7887;SDS011;3989;48.810;9.208;2023-10-09T13:49:46;8.95;;;6.32;;
7887;SDS011;3989;48.810;9.208;2023-10-09T13:52:16;11.80;;;6.60;;
7887;SDS011;3989;48.810;9.208;2023-10-09T13:54:44;9.48;;;6.05;;
7887;SDS011;3989;48.810;9.208;2023-10-09T13:57:13;8.05;;;6.25;;
7887;SDS011;3989;48.810;9.208;2023-10-09T13:59:40;9.00;;;6.43;;
7887;SDS011;3989;48.810;9.208;2023-10-09T14:02:15;10.93;;;5.93;;
7887;SDS011;3989;48.810;9.208;2023-10-09T14:04:46;12.07;;;5.97;;
7887;SDS011;3989;48.810;9.208;2023-10-09T14:07:13;9.65;;;6.10;;
7887;SDS011;3989;48.810;9.208;2023-10-09T14:09:42;10.70;;;5.85;;
7887;SDS011;3989;48.810;9.208;2023-10-09T14:12:20;7.53;;;5.75;;
7887;SDS011;3989;48.810;9.208;2023-10-09T14:14:49;10.63;;;5.93;;
7887;SDS011;3989;48.810;9.208;2023-10-09T14:17:21;7.53;;;6.00;;
7887;SDS011;3989;48.810;9.208;2023-10-09T14:19:50;11.93;;;6.07;;
7887;SDS011;3989;48.810;9.208;2023-10-09T14:22:18;10.00;;;5.97;;
7887;SDS011;3989;48.810;9.208;2023-10-09T14:24:46;9.80;;;5.55;;
7887;SDS011;3989;48.810;9.208;2023-10-09T14:27:20;7.85;;;6.03;;
7887;SDS011;3989;48.810;9.208;2023-10-09T14:29:51;9.00;;;6.43;;
7887;SDS011;3989;48.810;9.208;2023-10-09T14:32:22;8.60;;;5.85;;
7887;SDS011;3989;48.810;9.208;2023-10-09T14:34:53;9.00;;;5.80;;
7887;SDS011;3989;48.810;9.208;2023-10-09T14:37:25;10.02;;;6.03;;
7887;SDS011;3989;48.810;9.208;2023-10-09T14:39:52;8.73;;;6.03;;
7887;SDS011;3989;48.810;9.208;2023-10-09T14:42:20;8.32;;;5.80;;
7887;SDS011;3989;48.810;9.208;2023-10-09T14:44:49;9.77;;;5.90;;
7887;SDS011;3989;48.810;9.208;2023-10-09T14:47:16;9.85;;;5.82;;
7887;SDS011;3989;48.810;9.208;2023-10-09T14:49:46;10.02;;;5.43;;
7887;SDS011;3989;48.810;9.208;2023-10-09T14:52:13;9.10;;;5.50;;
7887;SDS011;3989;48.810;9.208;2023-10-09T14:54:41;10.88;;;5.65;;
7887;SDS011;3989;48.810;9.208;2023-10-09T14:57:09;10.35;;;5.65;;
7887;SDS011;3989;48.810;9.208;2023-10-09T14:59:36;6.03;;;5.28;;
7887;SDS011;3989;48.810;9.208;2023-10-09T15:02:03;8.45;;;5.38;;
7887;SDS011;3989;48.810;9.208;2023-10-09T15:04:30;8.27;;;5.85;;
7887;SDS011;3989;48.810;9.208;2023-10-09T15:07:02;6.55;;;5.75;;
7887;SDS011;3989;48.810;9.208;2023-10-09T15:09:31;11.38;;;5.22;;
7887;SDS011;3989;48.810;9.208;2023-10-09T15:12:00;8.35;;;4.97;;
7887;SDS011;3989;48.810;9.208;2023-10-09T15:14:26;9.88;;;5.50;;
7887;SDS011;3989;48.810;9.208;2023-10-09T15:16:53;9.60;;;5.90;;
7887;SDS011;3989;48.810;9.208;2023-10-09T15:19:20;8.18;;;5.45;;
7887;SDS011;3989;48.810;9.208;2023-10-09T15:21:54;9.88;;;5.20;;
7887;SDS011;3989;48.810;9.208;2023-10-09T15:24:22;8.15;;;5.40;;
7887;SDS011;3989;48.810;9.208;2023-10-09T15:26:50;9.23;;;6.45;;
7887;SDS011;3989;48.810;9.208;2023-10-09T15:29:18;9.00;;;5.78;;
7887;SDS011;3989;48.810;9.208;2023-10-09T15:31:53;9.40;;;5.78;;
7887;SDS011;3989;48.810;9.208;2023-10-09T15:34:20;9.20;;;5.25;;
7887;SDS011;3989;48.810;9.208;2023-10-09T15:36:49;9.43;;;5.63;;
7887;SDS011;3989;48.810;9.208;2023-10-09T15:39:18;15.75;;;5.88;;
7887;SDS011;3989;48.810;9.208;2023-10-09T15:41:46;10.90;;;5.30;;
7887;SDS011;3989;48.810;9.208;2023-10-09T15:44:14;18.05;;;6.25;;
7887;SDS011;3989;48.810;9.208;2023-10-09T15:46:41;13.00;;;5.90;;
7887;SDS011;3989;48.810;9.208;2023-10-09T15:49:10;8.43;;;5.88;;
7887;SDS011;3989;48.810;9.208;2023-10-09T15:51:38;12.38;;;6.30;;
7887;SDS011;3989;48.810;9.208;2023-10-09T15:54:05;10.38;;;5.88;;
7887;SDS011;3989;48.810;9.208;2023-10-09T15:56:34;12.02;;;6.05;;
7887;SDS011;3989;48.810;9.208;2023-10-09T15:59:06;10.32;;;5.40;;
7887;SDS011;3989;48.810;9.208;2023-10-09T16:01:32;8.85;;;5.15;;
7887;SDS011;3989;48.810;9.208;2023-10-09T16:04:06;8.18;;;6.07;;
7887;SDS011;3989;48.810;9.208;2023-10-09T16:06:35;12.32;;;6.30;;